Time;durP1;ratioP1;P1;durP2;ratioP2;P2;SDS_P1;SDS_P2;PMS_P1;PMS_P2;Temp;Humidity;BMP_temperature;BMP_pressure;BME280_temperature;BME280_humidity;BME280_pressure;Samples;Min_cycle;Max_cycle;Signal;HPM_P1;HPM_P2
2021/07/11 00:01:12;;;;;;;;;;;17.90;99.90;;;;;;4166664;28;20039;-77
2021/07/11 00:03:12;;;;;;;;;;;17.90;99.90;;;;;;4165247;28;19917;-78
2021/07/11 00:05:16;;;;;;;;;;;17.90;99.90;;;;;;4164744;28;20307;-78
2021/07/11 00:07:16;;;;;;;;;;;17.80;99.90;;;;;;4166569;28;19909;-77
2021/07/11 00:09:17;;;;;;;;;;;17.80;99.90;;;;;;4166485;28;19909;-78
2021/07/11 00:11:17;;;;;;;;;;;17.80;99.90;;;;;;4165985;28;19945;-78
2021/07/11 00:13:18;;;;;;;;;;;17.80;99.90;;;;;;4166169;28;20000;-78
2021/07/11 00:15:22;;;;;;;;;;;17.80;99.90;;;;;;4166294;28;19909;-78
2021/07/11 00:17:23;;;;;;;;;;;17.80;99.90;;;;;;4166183;28;19917;-78
2021/07/11 00:19:23;;;;;;;;;;;17.80;99.90;;;;;;4164819;28;19916;-77
2021/07/11 00:21:24;;;;;;;;;;;17.70;99.90;;;;;;4164916;28;19916;-77
2021/07/11 00:23:25;;;;;;;;;;;17.60;99.90;;;;;;4166148;28;19916;-78
2021/07/11 00:25:25;;;;;;;;;;;17.60;99.90;;;;;;4165600;28;20396;-78
2021/07/11 00:27:26;;;;;;;;;;;17.60;99.90;;;;;;4165892;28;19913;-78
2021/07/11 00:29:27;;;;;;;;;;;17.60;99.90;;;;;;4166063;28;19975;-78
2021/07/11 00:31:27;;;;;;;;;;;17.60;99.90;;;;;;4166142;28;19916;-78
2021/07/11 00:33:29;;;;;;;;;;;17.60;99.90;;;;;;4164566;28;20403;-78
2021/07/11 00:35:30;;;;;;;;;;;17.50;99.90;;;;;;4164395;28;19949;-78
2021/07/11 00:37:30;;;;;;;;;;;17.60;99.90;;;;;;4164960;28;19913;-77
2021/07/11 00:39:31;;;;;;;;;;;17.60;99.90;;;;;;4164871;28;19910;-78
2021/07/11 00:41:36;;;;;;;;;;;17.50;99.90;;;;;;4163180;28;19951;-78
2021/07/11 00:43:37;;;;;;;;;;;17.40;99.90;;;;;;4164765;28;19978;-78
2021/07/11 00:45:38;;;;;;;;;;;17.30;99.90;;;;;;4162821;28;19913;-78
2021/07/11 00:47:39;;;;;;;;;;;17.30;99.90;;;;;;4164803;28;19916;-78
2021/07/11 00:49:43;;;;;;;;;;;17.20;99.90;;;;;;4165082;28;19999;-77
2021/07/11 00:51:44;;;;;;;;;;;17.20;99.90;;;;;;4162677;28;19971;-76
2021/07/11 00:53:48;;;;;;;;;;;17.10;99.90;;;;;;4164087;28;19963;-77
2021/07/11 00:55:49;;;;;;;;;;;17.10;99.90;;;;;;4161764;28;19913;-78
2021/07/11 00:57:50;;;;;;;;;;;17.20;99.90;;;;;;4164873;28;19967;-78
2021/07/11 00:59:50;;;;;;;;;;;17.20;99.90;;;;;;4165273;28;20412;-77
2021/07/11 01:01:56;;;;;;;;;;;17.20;99.90;;;;;;4165343;28;19917;-78
2021/07/11 01:04:01;;;;;;;;;;;17.20;99.90;;;;;;4164923;28;19909;-78
2021/07/11 01:06:02;;;;;;;;;;;17.20;99.90;;;;;;4163437;28;20319;-77
2021/07/11 01:08:13;;;;;;;;;;;17.20;99.90;;;;;;4158230;28;20069;-77
2021/07/11 01:10:25;;;;;;;;;;;17.20;99.90;;;;;;4163732;28;20017;-78
2021/07/11 01:12:28;;;;;;;;;;;17.20;99.90;;;;;;4164793;28;20056;-78
2021/07/11 01:14:29;;;;;;;;;;;17.20;99.90;;;;;;4165372;28;19909;-78
2021/07/11 01:16:31;;;;;;;;;;;17.30;99.90;;;;;;4165033;28;19920;-77
2021/07/11 01:18:32;;;;;;;;;;;17.30;99.90;;;;;;4164980;28;19992;-77
2021/07/11 01:20:33;;;;;;;;;;;17.30;99.90;;;;;;4164647;28;20337;-77
2021/07/11 01:22:43;;;;;;;;;;;17.40;99.90;;;;;;4163077;28;19913;-78
2021/07/11 01:24:50;;;;;;;;;;;17.40;99.90;;;;;;4162831;28;19928;-78
2021/07/11 01:26:51;;;;;;;;;;;17.40;99.90;;;;;;4164081;28;19917;-77
2021/07/11 01:28:53;;;;;;;;;;;17.50;99.90;;;;;;4165379;28;19971;-78
2021/07/11 01:30:54;;;;;;;;;;;17.40;99.90;;;;;;4165154;28;19909;-78
2021/07/11 01:32:56;;;;;;;;;;;17.50;99.90;;;;;;4164750;28;19915;-78
2021/07/11 01:35:00;;;;;;;;;;;17.40;99.90;;;;;;4164971;28;19956;-78
2021/07/11 01:37:01;;;;;;;;;;;17.40;99.90;;;;;;4165024;28;19919;-76
2021/07/11 01:39:03;;;;;;;;;;;17.40;99.90;;;;;;4164926;28;19987;-77
2021/07/11 01:41:05;;;;;;;;;;;17.40;99.90;;;;;;4164838;28;19996;-77
2021/07/11 01:43:05;;;;;;;;;;;17.50;99.90;;;;;;4163659;28;19909;-77
2021/07/11 01:45:06;;;;;;;;;;;17.50;99.90;;;;;;4164378;28;19923;-77
2021/07/11 01:47:07;;;;;;;;;;;17.60;99.90;;;;;;4163348;28;20003;-78
2021/07/11 01:49:08;;;;;;;;;;;17.70;99.90;;;;;;4162997;28;19913;-77
2021/07/11 01:51:08;;;;;;;;;;;17.80;99.90;;;;;;4164447;28;20001;-78
2021/07/11 01:53:11;;;;;;;;;;;17.70;99.90;;;;;;4164732;28;19924;-78
2021/07/11 01:55:12;;;;;;;;;;;17.60;99.90;;;;;;4162862;28;19924;-77
2021/07/11 01:57:15;;;;;;;;;;;17.50;99.90;;;;;;4164015;28;19917;-77
2021/07/11 01:59:16;;;;;;;;;;;17.40;99.90;;;;;;4164358;28;19913;-79
2021/07/11 02:01:18;;;;;;;;;;;17.30;99.90;;;;;;4162003;28;19916;-78
2021/07/11 02:03:20;;;;;;;;;;;17.20;99.90;;;;;;4163403;28;19971;-78
2021/07/11 02:05:20;;;;;;;;;;;17.10;99.90;;;;;;4162253;28;20382;-77
2021/07/11 02:07:21;;;;;;;;;;;17.00;99.90;;;;;;4163476;28;19992;-78
2021/07/11 02:09:22;;;;;;;;;;;17.00;99.90;;;;;;4163236;28;19940;-78
2021/07/11 02:11:24;;;;;;;;;;;16.90;99.90;;;;;;4163299;28;19917;-78
2021/07/11 02:13:24;;;;;;;;;;;16.90;99.90;;;;;;4161619;28;20339;-78
2021/07/11 02:15:29;;;;;;;;;;;16.90;99.90;;;;;;4161408;28;19948;-77
2021/07/11 02:17:30;;;;;;;;;;;16.90;99.90;;;;;;4162599;28;20690;-77
2021/07/11 02:19:33;;;;;;;;;;;16.90;99.90;;;;;;4163673;28;20000;-78
2021/07/11 02:21:37;;;;;;;;;;;17.00;99.90;;;;;;4162752;28;19940;-78
2021/07/11 02:23:38;;;;;;;;;;;16.90;99.90;;;;;;4164558;28;19909;-77
2021/07/11 02:25:38;;;;;;;;;;;16.80;99.90;;;;;;4162912;28;19909;-78
2021/07/11 02:27:39;;;;;;;;;;;16.80;99.90;;;;;;4164386;28;19915;-78
2021/07/11 02:29:44;;;;;;;;;;;16.70;99.90;;;;;;4164277;28;19913;-78
2021/07/11 02:31:46;;;;;;;;;;;16.80;99.90;;;;;;4162608;28;19909;-78
2021/07/11 02:33:48;;;;;;;;;;;16.90;99.90;;;;;;4162781;28;19964;-77
2021/07/11 02:35:48;;;;;;;;;;;16.90;99.90;;;;;;4162459;28;20265;-78
2021/07/11 02:37:50;;;;;;;;;;;16.90;99.90;;;;;;4163655;28;19923;-78
2021/07/11 02:39:51;;;;;;;;;;;16.90;99.90;;;;;;4162744;28;19909;-78
2021/07/11 02:41:56;;;;;;;;;;;16.90;99.90;;;;;;4163964;28;19946;-78
2021/07/11 02:43:58;;;;;;;;;;;16.80;99.90;;;;;;4162682;28;20459;-77
2021/07/11 02:45:58;;;;;;;;;;;16.80;99.90;;;;;;4163269;28;19943;-78
2021/07/11 02:48:00;;;;;;;;;;;16.90;99.90;;;;;;4163670;28;19992;-77
2021/07/11 02:50:01;;;;;;;;;;;16.90;99.90;;;;;;4162973;28;19913;-76
2021/07/11 02:52:04;;;;;;;;;;;16.90;99.90;;;;;;4163385;28;19909;-77
2021/07/11 02:54:06;;;;;;;;;;;16.90;99.90;;;;;;4162640;28;19909;-78
2021/07/11 02:56:07;;;;;;;;;;;16.90;99.90;;;;;;4163903;28;20364;-78
2021/07/11 02:58:10;;;;;;;;;;;16.90;99.90;;;;;;4162676;28;20004;-77
2021/07/11 03:00:11;;;;;;;;;;;16.90;99.90;;;;;;4162642;28;20391;-78
2021/07/11 03:02:12;;;;;;;;;;;17.00;99.90;;;;;;4162521;28;19963;-77
2021/07/11 03:04:14;;;;;;;;;;;16.90;99.90;;;;;;4162847;28;19917;-77
2021/07/11 03:06:16;;;;;;;;;;;17.00;99.90;;;;;;4161277;28;20268;-78
2021/07/11 03:08:16;;;;;;;;;;;17.10;99.90;;;;;;4162527;28;19932;-77
2021/07/11 03:10:17;;;;;;;;;;;17.10;99.90;;;;;;4162617;28;19988;-78
2021/07/11 03:12:18;;;;;;;;;;;17.10;99.90;;;;;;4162149;28;19909;-77
2021/07/11 03:14:20;;;;;;;;;;;17.10;99.90;;;;;;4162776;28;19909;-77
2021/07/11 03:16:21;;;;;;;;;;;17.00;99.90;;;;;;4162766;28;19917;-78
2021/07/11 03:18:23;;;;;;;;;;;17.00;99.90;;;;;;4161375;28;19977;-78
2021/07/11 03:20:23;;;;;;;;;;;17.00;99.90;;;;;;4160863;28;19992;-77
2021/07/11 03:22:26;;;;;;;;;;;17.00;99.90;;;;;;4162599;28;19909;-77
2021/07/11 03:24:28;;;;;;;;;;;17.00;99.90;;;;;;4161498;28;19932;-77
2021/07/11 03:26:29;;;;;;;;;;;17.00;99.90;;;;;;4162819;28;19921;-77
2021/07/11 03:28:31;;;;;;;;;;;16.90;99.90;;;;;;4166148;28;19956;-78
2021/07/11 03:30:36;;;;;;;;;;;17.00;99.90;;;;;;4165996;28;19909;-78
2021/07/11 03:32:49;;;;;;;;;;;16.90;99.90;;;;;;4165615;28;20000;-78
2021/07/11 03:34:51;;;;;;;;;;;16.80;99.90;;;;;;4165603;28;20376;-77
2021/07/11 03:36:51;;;;;;;;;;;16.80;99.90;;;;;;4166743;28;20336;-78
2021/07/11 03:38:57;;;;;;;;;;;16.80;99.90;;;;;;4165556;28;19916;-78
2021/07/11 03:40:58;;;;;;;;;;;16.80;99.90;;;;;;4165144;28;19909;-78
2021/07/11 03:43:00;;;;;;;;;;;16.80;99.90;;;;;;4166946;28;19909;-77
2021/07/11 03:45:01;;;;;;;;;;;16.80;99.90;;;;;;4166311;28;19988;-76
2021/07/11 03:47:03;;;;;;;;;;;16.90;99.90;;;;;;4166691;28;19909;-76
2021/07/11 03:49:05;;;;;;;;;;;16.90;99.90;;;;;;4164928;28;19935;-78
2021/07/11 03:51:07;;;;;;;;;;;16.90;99.90;;;;;;4166493;28;20345;-77
2021/07/11 03:53:08;;;;;;;;;;;16.90;99.90;;;;;;4166747;28;19909;-77
2021/07/11 03:55:09;;;;;;;;;;;16.80;99.90;;;;;;4165080;28;19962;-77
2021/07/11 03:57:09;;;;;;;;;;;16.80;99.90;;;;;;4166119;28;19913;-78
2021/07/11 03:59:10;;;;;;;;;;;16.80;99.90;;;;;;4165047;28;20008;-77
2021/07/11 04:01:12;;;;;;;;;;;16.80;99.90;;;;;;4166311;28;19909;-77
2021/07/11 04:03:14;;;;;;;;;;;17.00;99.90;;;;;;4166048;28;19912;-78
2021/07/11 04:05:17;;;;;;;;;;;16.90;99.90;;;;;;4166555;28;19916;-78
2021/07/11 04:07:19;;;;;;;;;;;17.10;99.90;;;;;;4164695;28;19910;-77
2021/07/11 04:09:21;;;;;;;;;;;17.10;99.90;;;;;;4166348;28;19925;-77
2021/07/11 04:11:23;;;;;;;;;;;17.10;99.90;;;;;;4166469;28;19909;-78
2021/07/11 04:13:24;;;;;;;;;;;17.10;99.90;;;;;;4166223;28;19909;-78
2021/07/11 04:15:25;;;;;;;;;;;17.10;99.90;;;;;;4166233;28;20406;-78
2021/07/11 04:17:27;;;;;;;;;;;17.10;99.90;;;;;;4166403;28;19948;-78
2021/07/11 04:19:30;;;;;;;;;;;17.20;99.90;;;;;;4165913;28;19944;-78
2021/07/11 04:21:32;;;;;;;;;;;17.00;99.90;;;;;;4165903;28;19909;-77
2021/07/11 04:23:34;;;;;;;;;;;16.90;99.90;;;;;;4165750;28;20379;-78
2021/07/11 04:25:38;;;;;;;;;;;16.90;99.90;;;;;;4165950;28;19909;-78
2021/07/11 04:27:39;;;;;;;;;;;16.80;99.90;;;;;;4166102;28;19909;-78
2021/07/11 04:29:40;;;;;;;;;;;16.80;99.90;;;;;;4166086;28;20325;-78
2021/07/11 04:31:42;;;;;;;;;;;16.80;99.90;;;;;;4164901;28;20307;-78
2021/07/11 04:33:44;;;;;;;;;;;16.80;99.90;;;;;;4166206;28;19920;-78
2021/07/11 04:35:45;;;;;;;;;;;16.80;99.90;;;;;;4165618;28;19963;-78
2021/07/11 04:37:46;;;;;;;;;;;16.70;99.90;;;;;;4165507;28;19920;-79
2021/07/11 04:39:46;;;;;;;;;;;16.70;99.90;;;;;;4164595;28;19909;-78
2021/07/11 04:41:47;;;;;;;;;;;16.80;99.90;;;;;;4165982;28;19909;-78
2021/07/11 04:43:50;;;;;;;;;;;16.80;99.90;;;;;;4164371;28;19996;-78
2021/07/11 04:45:50;;;;;;;;;;;16.80;99.90;;;;;;4165739;28;20348;-78
2021/07/11 04:47:51;;;;;;;;;;;16.80;99.90;;;;;;4161910;28;19987;-79
2021/07/11 04:49:52;;;;;;;;;;;16.80;99.90;;;;;;4165449;28;19913;-78
2021/07/11 04:51:53;;;;;;;;;;;16.80;99.90;;;;;;4163402;28;20011;-76
2021/07/11 04:53:54;;;;;;;;;;;16.80;99.90;;;;;;4157638;28;20347;-78
2021/07/11 04:55:56;;;;;;;;;;;16.80;99.90;;;;;;4150577;28;19936;-79
2021/07/11 04:57:56;;;;;;;;;;;16.80;99.90;;;;;;4158509;28;19921;-77
2021/07/11 04:59:57;;;;;;;;;;;16.80;99.90;;;;;;4163464;28;20640;-77
2021/07/11 05:01:58;;;;;;;;;;;16.80;99.90;;;;;;4154148;28;19949;-78
2021/07/11 05:03:58;;;;;;;;;;;16.80;99.90;;;;;;4150850;28;19917;-78
2021/07/11 05:05:59;;;;;;;;;;;16.80;99.90;;;;;;4156655;28;20009;-77
2021/07/11 05:07:59;;;;;;;;;;;16.80;99.90;;;;;;4150628;28;19909;-77
2021/07/11 05:10:00;;;;;;;;;;;16.70;99.90;;;;;;4154965;28;19936;-78
2021/07/11 05:12:00;;;;;;;;;;;16.70;99.90;;;;;;4152870;28;19912;-77
2021/07/11 05:14:02;;;;;;;;;;;16.60;99.90;;;;;;4152530;28;19909;-77
2021/07/11 05:16:03;;;;;;;;;;;16.60;99.90;;;;;;4149814;28;19913;-77
2021/07/11 05:18:04;;;;;;;;;;;16.60;99.90;;;;;;4151277;28;19917;-78
2021/07/11 05:20:06;;;;;;;;;;;16.50;99.90;;;;;;4149522;28;20403;-77
2021/07/11 05:22:06;;;;;;;;;;;16.50;99.90;;;;;;4156871;28;19975;-77
2021/07/11 05:24:07;;;;;;;;;;;16.50;99.90;;;;;;4151933;28;20011;-78
2021/07/11 05:26:08;;;;;;;;;;;16.50;99.90;;;;;;4156779;28;19909;-79
2021/07/11 05:28:09;;;;;;;;;;;16.50;99.90;;;;;;4147618;28;20364;-78
2021/07/11 05:30:10;;;;;;;;;;;16.60;99.90;;;;;;4148606;28;19956;-78
2021/07/11 05:32:10;;;;;;;;;;;16.60;99.90;;;;;;4152596;28;19955;-78
2021/07/11 05:34:11;;;;;;;;;;;16.70;99.90;;;;;;4158509;28;19975;-78
2021/07/11 05:36:11;;;;;;;;;;;16.80;99.90;;;;;;4151184;28;19932;-78
2021/07/11 05:38:12;;;;;;;;;;;16.90;99.90;;;;;;4156295;28;19996;-78
2021/07/11 05:40:15;;;;;;;;;;;16.90;99.90;;;;;;4151734;28;19917;-78
2021/07/11 05:42:16;;;;;;;;;;;17.00;99.90;;;;;;4150508;28;19910;-78
2021/07/11 05:44:17;;;;;;;;;;;17.00;99.90;;;;;;4161572;28;19999;-77
2021/07/11 05:46:17;;;;;;;;;;;17.00;99.90;;;;;;4160358;28;20403;-77
2021/07/11 05:48:18;;;;;;;;;;;17.00;99.90;;;;;;4156257;28;20012;-76
2021/07/11 05:50:19;;;;;;;;;;;17.10;99.90;;;;;;4162397;28;20394;-77
2021/07/11 05:52:20;;;;;;;;;;;17.20;99.90;;;;;;4153713;28;21534;-76
2021/07/11 05:54:21;;;;;;;;;;;17.20;99.90;;;;;;4160209;28;19917;-77
2021/07/11 05:56:21;;;;;;;;;;;17.20;99.90;;;;;;4152060;28;20044;-77
2021/07/11 05:58:22;;;;;;;;;;;17.30;99.90;;;;;;4149115;28;19964;-77
2021/07/11 06:00:22;;;;;;;;;;;17.30;99.90;;;;;;4150135;28;19914;-77
2021/07/11 06:02:23;;;;;;;;;;;17.30;99.90;;;;;;4153076;28;19909;-77
2021/07/11 06:04:24;;;;;;;;;;;17.20;99.90;;;;;;4153747;28;19909;-77
2021/07/11 06:06:24;;;;;;;;;;;17.30;99.90;;;;;;4151892;28;19910;-77
2021/07/11 06:08:25;;;;;;;;;;;17.30;99.90;;;;;;4154745;28;19913;-77
2021/07/11 06:10:26;;;;;;;;;;;17.30;99.90;;;;;;4152919;28;19960;-77
2021/07/11 06:12:26;;;;;;;;;;;17.30;99.90;;;;;;4170968;28;19921;-78
2021/07/11 06:14:27;;;;;;;;;;;17.30;99.90;;;;;;4155603;28;20249;-77
2021/07/11 06:16:28;;;;;;;;;;;17.30;99.90;;;;;;4166998;28;19909;-77
2021/07/11 06:18:29;;;;;;;;;;;17.30;99.90;;;;;;4158705;28;19913;-77
2021/07/11 06:20:29;;;;;;;;;;;17.40;99.90;;;;;;4155780;28;19916;-77
2021/07/11 06:22:30;;;;;;;;;;;17.40;99.90;;;;;;4155816;28;19962;-77
2021/07/11 06:24:30;;;;;;;;;;;17.60;99.90;;;;;;4155759;28;19917;-78
2021/07/11 06:26:31;;;;;;;;;;;17.80;99.90;;;;;;4171908;28;20399;-77
2021/07/11 06:28:32;;;;;;;;;;;17.90;99.90;;;;;;4163457;28;20353;-77
2021/07/11 06:30:32;;;;;;;;;;;18.00;99.90;;;;;;4164048;28;20268;-77
2021/07/11 06:32:33;;;;;;;;;;;18.20;99.90;;;;;;4162584;28;19932;-78
2021/07/11 06:34:34;;;;;;;;;;;18.30;99.90;;;;;;4163670;28;19913;-77
2021/07/11 06:36:34;;;;;;;;;;;18.40;99.90;;;;;;4162142;28;19913;-77
2021/07/11 06:38:35;;;;;;;;;;;18.50;99.90;;;;;;4163456;28;19919;-77
2021/07/11 06:40:35;;;;;;;;;;;18.70;99.90;;;;;;4161489;28;19917;-78
2021/07/11 06:42:37;;;;;;;;;;;18.90;99.90;;;;;;4161486;28;19909;-77
2021/07/11 06:44:37;;;;;;;;;;;19.20;99.90;;;;;;4163387;28;19940;-77
2021/07/11 06:46:38;;;;;;;;;;;19.30;99.90;;;;;;4163477;28;19909;-77
2021/07/11 06:48:39;;;;;;;;;;;19.40;99.90;;;;;;4160737;28;19978;-76
2021/07/11 06:50:43;;;;;;;;;;;19.70;99.90;;;;;;4161950;28;19917;-78
2021/07/11 06:52:44;;;;;;;;;;;19.80;99.90;;;;;;4160142;28;20383;-77
2021/07/11 06:54:44;;;;;;;;;;;19.90;99.90;;;;;;4153306;28;19917;-77
2021/07/11 06:56:45;;;;;;;;;;;20.20;99.90;;;;;;4151155;28;20012;-77
2021/07/11 06:58:45;;;;;;;;;;;20.50;99.90;;;;;;4154313;28;19967;-77
2021/07/11 07:00:46;;;;;;;;;;;20.70;99.90;;;;;;4154153;28;20300;-78
2021/07/11 07:02:46;;;;;;;;;;;20.90;99.90;;;;;;4154205;28;19913;-76
2021/07/11 07:04:48;;;;;;;;;;;21.10;99.90;;;;;;4153917;28;19918;-77
2021/07/11 07:06:49;;;;;;;;;;;21.30;99.90;;;;;;4156178;28;20428;-77
2021/07/11 07:08:49;;;;;;;;;;;21.30;99.90;;;;;;4152581;28;20006;-77
2021/07/11 07:10:50;;;;;;;;;;;21.20;99.90;;;;;;4161532;28;19909;-77
2021/07/11 07:12:51;;;;;;;;;;;21.30;99.90;;;;;;4152722;28;19909;-77
2021/07/11 07:14:51;;;;;;;;;;;21.20;99.90;;;;;;4151989;28;19979;-77
2021/07/11 07:16:52;;;;;;;;;;;21.30;99.90;;;;;;4154808;28;20269;-77
2021/07/11 07:18:52;;;;;;;;;;;21.10;99.90;;;;;;4152587;28;20000;-77
2021/07/11 07:20:53;;;;;;;;;;;21.10;99.90;;;;;;4152386;28;19917;-78
2021/07/11 07:22:54;;;;;;;;;;;21.10;99.90;;;;;;4151567;28;19909;-77
2021/07/11 07:24:54;;;;;;;;;;;21.00;99.90;;;;;;4150075;28;19910;-77
2021/07/11 07:26:55;;;;;;;;;;;21.00;99.90;;;;;;4149949;28;19910;-77
2021/07/11 07:28:56;;;;;;;;;;;20.90;99.90;;;;;;4152578;28;19939;-77
2021/07/11 07:30:56;;;;;;;;;;;21.00;99.90;;;;;;4151215;28;19909;-77
2021/07/11 07:32:57;;;;;;;;;;;21.10;99.90;;;;;;4149057;28;19964;-77
2021/07/11 07:34:57;;;;;;;;;;;21.10;99.90;;;;;;4150343;28;19956;-77
2021/07/11 07:36:59;;;;;;;;;;;21.00;99.90;;;;;;4148133;28;20315;-77
2021/07/11 07:39:00;;;;;;;;;;;21.20;99.90;;;;;;4149075;28;19909;-78
2021/07/11 07:41:00;;;;;;;;;;;21.30;99.90;;;;;;4168450;28;19916;-77
2021/07/11 07:43:01;;;;;;;;;;;21.40;99.90;;;;;;4150574;28;19916;-76
2021/07/11 07:45:04;;;;;;;;;;;21.60;99.90;;;;;;4149757;28;20408;-77
2021/07/11 07:47:04;;;;;;;;;;;21.70;99.90;;;;;;4157287;28;19916;-77
2021/07/11 07:49:05;;;;;;;;;;;21.90;99.90;;;;;;4152199;28;19999;-77
2021/07/11 07:51:06;;;;;;;;;;;22.00;99.90;;;;;;4148709;28;19936;-77
2021/07/11 07:53:06;;;;;;;;;;;22.00;99.90;;;;;;4153621;28;19916;-77
2021/07/11 07:55:07;;;;;;;;;;;21.70;99.90;;;;;;4161095;28;19951;-77
2021/07/11 07:57:08;;;;;;;;;;;21.60;99.90;;;;;;4151143;28;19921;-77
2021/07/11 07:59:08;;;;;;;;;;;21.70;99.90;;;;;;4151806;28;20023;-77
2021/07/11 08:01:09;;;;;;;;;;;21.80;99.90;;;;;;4152330;28;19913;-75
2021/07/11 08:03:09;;;;;;;;;;;21.60;99.90;;;;;;4151806;28;19912;-78
2021/07/11 08:05:10;;;;;;;;;;;21.50;99.90;;;;;;4152046;28;20003;-77
2021/07/11 08:07:11;;;;;;;;;;;21.60;99.90;;;;;;4151063;28;20254;-77
2021/07/11 08:09:13;;;;;;;;;;;21.50;99.90;;;;;;4148911;28;20004;-77
2021/07/11 08:11:13;;;;;;;;;;;21.60;99.90;;;;;;4151431;28;19921;-77
2021/07/11 08:13:14;;;;;;;;;;;21.70;99.90;;;;;;4148749;28;19993;-76
2021/07/11 08:15:16;;;;;;;;;;;21.70;99.90;;;;;;4157838;28;19913;-77
2021/07/11 08:17:17;;;;;;;;;;;21.30;99.90;;;;;;4153553;28;20333;-77
2021/07/11 08:19:17;;;;;;;;;;;20.80;99.90;;;;;;4160934;28;19956;-77
2021/07/11 08:21:18;;;;;;;;;;;20.90;99.90;;;;;;4155046;28;20264;-76
2021/07/11 08:23:18;;;;;;;;;;;20.70;99.90;;;;;;4148969;28;20372;-76
2021/07/11 08:25:19;;;;;;;;;;;21.30;99.90;;;;;;4151151;28;19992;-76
2021/07/11 08:27:21;;;;;;;;;;;21.60;99.90;;;;;;4163321;28;19928;-76
2021/07/11 08:29:22;;;;;;;;;;;22.00;99.90;;;;;;4164270;28;19928;-77
2021/07/11 08:31:23;;;;;;;;;;;22.20;99.90;;;;;;4166193;28;19917;-76
2021/07/11 08:33:23;;;;;;;;;;;22.00;99.90;;;;;;4165722;28;20309;-77
2021/07/11 08:35:24;;;;;;;;;;;21.90;99.90;;;;;;4165844;28;19963;-76
2021/07/11 08:37:25;;;;;;;;;;;21.90;99.90;;;;;;4165442;28;19971;-76
2021/07/11 08:39:28;;;;;;;;;;;21.80;99.90;;;;;;4164284;28;20332;-76
2021/07/11 08:41:29;;;;;;;;;;;21.70;99.90;;;;;;4165831;28;20268;-76
2021/07/11 08:43:30;;;;;;;;;;;21.50;99.90;;;;;;4165779;28;19916;-76
2021/07/11 08:45:31;;;;;;;;;;;21.50;99.90;;;;;;4165710;28;19909;-76
2021/07/11 08:47:31;;;;;;;;;;;21.40;99.90;;;;;;4165651;28;19916;-75
2021/07/11 08:49:32;;;;;;;;;;;21.30;99.90;;;;;;4161673;28;19940;-75
2021/07/11 08:51:33;;;;;;;;;;;21.00;99.90;;;;;;4164969;28;19975;-76
2021/07/11 08:53:34;;;;;;;;;;;20.80;99.90;;;;;;4164358;28;19960;-76
2021/07/11 08:55:35;;;;;;;;;;;20.80;99.90;;;;;;4165759;28;19921;-76
2021/07/11 08:57:35;;;;;;;;;;;20.80;99.90;;;;;;4171315;28;20404;-76
2021/07/11 08:59:39;;;;;;;;;;;20.60;99.90;;;;;;4167420;28;19912;-76
2021/07/11 09:01:40;;;;;;;;;;;20.70;99.90;;;;;;4160531;28;19916;-76
2021/07/11 09:03:40;;;;;;;;;;;20.70;99.90;;;;;;4161302;28;19909;-77
2021/07/11 09:05:41;;;;;;;;;;;20.70;99.90;;;;;;4164007;28;19916;-77
2021/07/11 09:07:42;;;;;;;;;;;20.60;99.90;;;;;;4165627;28;19944;-78
2021/07/11 09:09:43;;;;;;;;;;;20.40;99.90;;;;;;4163678;28;19909;-77
2021/07/11 09:11:45;;;;;;;;;;;20.40;99.90;;;;;;4163715;28;19991;-77
2021/07/11 09:13:49;;;;;;;;;;;20.60;99.90;;;;;;4155419;28;19913;-77
2021/07/11 09:15:50;;;;;;;;;;;20.70;99.90;;;;;;4167377;28;19996;-76
2021/07/11 09:17:55;;;;;;;;;;;20.90;99.90;;;;;;4158453;28;20019;-76
2021/07/11 09:19:56;;;;;;;;;;;21.20;99.90;;;;;;4165113;28;19916;-77
2021/07/11 09:21:56;;;;;;;;;;;21.50;99.90;;;;;;4163636;28;19909;-78
2021/07/11 09:23:57;;;;;;;;;;;21.80;99.90;;;;;;4164360;28;19913;-77
2021/07/11 09:25:59;;;;;;;;;;;22.10;99.90;;;;;;4164958;28;20281;-77
2021/07/11 09:28:08;;;;;;;;;;;22.40;99.90;;;;;;4163098;28;19916;-76
2021/07/11 09:30:10;;;;;;;;;;;22.60;99.90;;;;;;4164969;28;19958;-78
2021/07/11 09:32:22;;;;;;;;;;;22.80;99.90;;;;;;4165421;28;19916;-77
2021/07/11 09:34:24;;;;;;;;;;;22.90;99.90;;;;;;4164799;28;20412;-77
2021/07/11 09:36:25;;;;;;;;;;;22.80;99.90;;;;;;4163255;28;20019;-77
2021/07/11 09:38:29;;;;;;;;;;;22.90;99.90;;;;;;4164304;28;19909;-78
2021/07/11 09:40:30;;;;;;;;;;;23.20;99.90;;;;;;4162568;28;19909;-77
2021/07/11 09:42:50;;;;;;;;;;;23.70;99.90;;;;;;4149088;28;20028;-77
2021/07/11 09:44:50;;;;;;;;;;;23.80;99.90;;;;;;4158192;28;20340;-78
2021/07/11 09:46:51;;;;;;;;;;;24.30;99.90;;;;;;4153992;28;20003;-78
2021/07/11 09:48:52;;;;;;;;;;;24.60;99.90;;;;;;4153680;28;19944;-77
2021/07/11 09:50:52;;;;;;;;;;;24.70;99.90;;;;;;4159159;28;20340;-78
2021/07/11 09:52:54;;;;;;;;;;;24.40;99.90;;;;;;4155236;28;19921;-77
2021/07/11 09:54:56;;;;;;;;;;;24.10;99.90;;;;;;4150813;28;19909;-77
2021/07/11 09:56:57;;;;;;;;;;;23.80;99.90;;;;;;4154781;28;19917;-77
2021/07/11 09:58:57;;;;;;;;;;;23.50;99.90;;;;;;4156007;28;19928;-77
2021/07/11 10:00:58;;;;;;;;;;;23.40;99.90;;;;;;4169480;28;19909;-76
2021/07/11 10:03:00;;;;;;;;;;;23.40;99.90;;;;;;4156785;28;19916;-77
2021/07/11 10:05:01;;;;;;;;;;;23.40;99.90;;;;;;4159698;28;20596;-77
2021/07/11 10:07:01;;;;;;;;;;;23.10;99.90;;;;;;4151617;28;19949;-76
2021/07/11 10:09:03;;;;;;;;;;;22.90;99.90;;;;;;4156209;28;19949;-76
2021/07/11 10:11:04;;;;;;;;;;;22.90;99.90;;;;;;4156615;28;20353;-77
2021/07/11 10:13:06;;;;;;;;;;;23.10;99.90;;;;;;4159860;28;19921;-77
2021/07/11 10:15:11;;;;;;;;;;;23.30;99.90;;;;;;4154253;28;19916;-76
2021/07/11 10:17:14;;;;;;;;;;;23.40;99.90;;;;;;4166954;28;19975;-77
2021/07/11 10:19:15;;;;;;;;;;;23.70;99.90;;;;;;4162242;28;19919;-77
2021/07/11 10:21:18;;;;;;;;;;;24.10;99.90;;;;;;4158118;28;19956;-76
2021/07/11 10:23:26;;;;;;;;;;;24.60;99.90;;;;;;4147310;28;20019;-77
2021/07/11 10:25:28;;;;;;;;;;;25.50;99.90;;;;;;4149558;28;19924;-76
2021/07/11 10:27:28;;;;;;;;;;;26.50;99.90;;;;;;4167742;28;19909;-77
2021/07/11 10:29:29;;;;;;;;;;;27.20;99.90;;;;;;4153904;28;19940;-77
2021/07/11 10:31:29;;;;;;;;;;;27.00;99.90;;;;;;4154913;28;19979;-78
2021/07/11 10:33:41;;;;;;;;;;;27.00;99.90;;;;;;4152812;28;19910;-75
2021/07/11 10:35:50;;;;;;;;;;;27.20;99.90;;;;;;4160009;28;19916;-77
2021/07/11 10:37:52;;;;;;;;;;;27.80;99.90;;;;;;4152852;28;20300;-77
2021/07/11 10:40:06;;;;;;;;;;;27.90;99.90;;;;;;4164205;28;20423;-75
2021/07/11 10:42:08;;;;;;;;;;;28.40;99.90;;;;;;4162674;28;19909;-78
2021/07/11 10:44:12;;;;;;;;;;;28.40;99.90;;;;;;4162852;28;19909;-75
2021/07/11 10:46:13;;;;;;;;;;;27.70;99.90;;;;;;4163849;28;20004;-76
2021/07/11 10:48:14;;;;;;;;;;;28.30;99.90;;;;;;4162599;28;20444;-74
2021/07/11 10:50:22;;;;;;;;;;;28.70;99.90;;;;;;4161859;28;19917;-78
2021/07/11 10:52:24;;;;;;;;;;;29.20;99.90;;;;;;4159517;28;19917;-78
2021/07/11 10:54:28;;;;;;;;;;;29.60;99.90;;;;;;4163993;28;19909;-78
2021/07/11 10:56:29;;;;;;;;;;;29.40;99.90;;;;;;4164167;28;19916;-78
2021/07/11 10:58:45;;;;;;;;;;;29.60;99.90;;;;;;4164172;28;19925;-78
2021/07/11 11:00:47;;;;;;;;;;;29.80;99.90;;;;;;4163688;28;19955;-78
2021/07/11 11:02:49;;;;;;;;;;;29.60;99.90;;;;;;4164009;28;19937;-78
2021/07/11 11:05:12;;;;;;;;;;;29.20;99.90;;;;;;4161605;28;19996;-79
2021/07/11 11:07:17;;;;;;;;;;;28.60;99.90;;;;;;4163900;28;20403;-78
2021/07/11 11:09:36;;;;;;;;;;;27.20;99.90;;;;;;4162536;28;19909;-79
2021/07/11 11:11:37;;;;;;;;;;;26.80;99.90;;;;;;4162759;28;19917;-79
2021/07/11 11:13:37;;;;;;;;;;;26.40;99.90;;;;;;4164036;28;20044;-78
2021/07/11 11:15:40;;;;;;;;;;;26.70;99.90;;;;;;4163957;28;20488;-79
2021/07/11 11:17:41;;;;;;;;;;;26.40;99.90;;;;;;4162190;28;19932;-75
2021/07/11 11:19:44;;;;;;;;;;;26.60;99.90;;;;;;4163737;28;20311;-78
2021/07/11 11:21:51;;;;;;;;;;;26.40;99.90;;;;;;4163363;28;20512;-78
2021/07/11 11:23:53;;;;;;;;;;;25.90;99.90;;;;;;4161892;28;19921;-79
2021/07/11 11:25:54;;;;;;;;;;;25.80;99.90;;;;;;4163156;28;20008;-78
2021/07/11 11:27:55;;;;;;;;;;;25.70;99.90;;;;;;4167827;28;19932;-76
2021/07/11 11:30:06;;;;;;;;;;;25.60;99.90;;;;;;4162281;28;20377;-76
2021/07/11 11:32:11;;;;;;;;;;;25.40;99.90;;;;;;4163449;28;19909;-79
2021/07/11 11:34:12;;;;;;;;;;;25.30;99.90;;;;;;4163491;28;19909;-76
2021/07/11 11:36:16;;;;;;;;;;;24.50;99.90;;;;;;4163742;28;19920;-76
2021/07/11 11:38:16;;;;;;;;;;;24.50;99.90;;;;;;4163483;28;19913;-77
2021/07/11 11:40:18;;;;;;;;;;;24.30;99.90;;;;;;4156810;28;20327;-76
2021/07/11 11:42:20;;;;;;;;;;;24.00;99.90;;;;;;4149041;28;19909;-77
2021/07/11 11:44:22;;;;;;;;;;;24.20;99.90;;;;;;4176956;28;19935;-78
2021/07/11 11:46:24;;;;;;;;;;;25.30;99.90;;;;;;4177987;28;20000;-78
2021/07/11 11:48:25;;;;;;;;;;;26.40;99.90;;;;;;4165002;28;19913;-77